Uraga Maru — JD2163 — position and weather

sailwx.info

Track history (hours):
 
Tides and Currents Weather Stations Pressure Air Temp Water Temp Dewpoint Dewpoint Depression Visibility Wind Speed Wind Dir Waves Ship Positions

Uraga Maru

Last reported at 2014-Jul-22 06:33 UTC. Time now 2014-Jul-22 07:21 UTC.
Position N 35°17' E 139°41'.

Length 40 m; draft 2.8 m.

Type: Tug. MMSI: 431101119.

Date/timePositionNaut miles runAvg speedWind from/ knotsBaromVisibWave heightAir tempDewpointWater temp
2014-Jul-22 06:33N 35°17' E 139°41'9 9.1
2014-Jul-22 05:33N 35°26' E 139°43'1 0.9
2014-Jul-22 04:33N 35°27' E 139°43'0 0.0
2014-Jul-22 03:33N 35°27' E 139°43'2 1.5
2014-Jul-22 02:33N 35°26' E 139°44'6 6.3
2014-Jul-22 01:34N 35°20' E 139°44'10 9.9
2014-Jul-22 00:33N 35°10' E 139°47'8 8.4
2014-Jul-21 23:34N 35°17' E 139°41'1 0.8
2014-Jul-21 22:31N 35°17' E 139°41'0 0.0
2014-Jul-21 21:33N 35°17' E 139°41'0 0.0
2014-Jul-21 20:34N 35°17' E 139°41'0 0.0
2014-Jul-21 20:18N 35°17' E 139°41'0 0.0
2014-Jul-21 19:33N 35°17' E 139°41'0 0.0
2014-Jul-21 18:33N 35°17' E 139°41'0 0.0
2014-Jul-21 17:33N 35°17' E 139°41'0 0.0
2014-Jul-21 16:33N 35°17' E 139°41'0 0.0
2014-Jul-21 15:34N 35°17' E 139°41'0 0.0
2014-Jul-21 14:33N 35°17' E 139°41'0 0.0
2014-Jul-21 13:33N 35°17' E 139°41'0 0.0
2014-Jul-21 12:33N 35°17' E 139°41'0 0.0
2014-Jul-21 11:34N 35°17' E 139°41'0 0.0
2014-Jul-21 10:34N 35°17' E 139°41'0 0.0
2014-Jul-21 09:34N 35°17' E 139°41'0 0.0
2014-Jul-21 08:34N 35°17' E 139°41'0 0.0
2014-Jul-21 07:33N 35°17' E 139°41'0 0.0
2014-Jul-21 06:34N 35°17' E 139°41'0 0.0
2014-Jul-21 05:33N 35°17' E 139°41'0 0.0
2014-Jul-21 04:34N 35°17' E 139°41'0 0.0
2014-Jul-21 03:33N 35°17' E 139°41'0 0.0
2014-Jul-21 02:33N 35°17' E 139°41'5 5.4
2014-Jul-21 01:34N 35°15' E 139°46'1110.7
2014-Jul-21 00:34N 35°25' E 139°44'6 5.8
2014-Jul-20 23:33N 35°23' E 139°51'8 7.6
2014-Jul-20 22:33N 35°18' E 139°43'2 2.1
2014-Jul-20 21:25N 35°17' E 139°41'0 0.0
2014-Jul-20 16:16N 35°17' E 139°41'0 0.0
2014-Jul-20 14:25N 35°17' E 139°41'0 0.0
2014-Jul-20 13:07N 35°17' E 139°41'0 0.0
2014-Jul-20 10:04N 35°17' E 139°41'0 0.0
2014-Jul-20 09:22N 35°17' E 139°41'0 0.0
2014-Jul-20 08:31N 35°17' E 139°41'3 3.5
2014-Jul-20 07:33N 35°20' E 139°43'1010.3
2014-Jul-20 06:33N 35°10' E 139°47'9 8.9
2014-Jul-20 05:34N 35°17' E 139°41'0 0.4
2014-Jul-20 04:34N 35°17' E 139°41'0 0.0
2014-Jul-20 03:34N 35°17' E 139°41'0 0.0
2014-Jul-20 02:34N 35°17' E 139°41'4 4.1
2014-Jul-20 01:34N 35°21' E 139°42'8 8.4
2014-Jul-20 00:33N 35°14' E 139°47'1 1.1
2014-Jul-19 23:34N 35°13' E 139°46'6 5.7
2014-Jul-19 22:33N 35°17' E 139°41'0 0.0
2014-Jul-19 21:33N 35°17' E 139°41'0 0.0
2014-Jul-19 20:33N 35°17' E 139°41'0 0.0
2014-Jul-19 19:33N 35°17' E 139°41'0 0.0
2014-Jul-19 18:33N 35°17' E 139°41'0 0.0
2014-Jul-19 17:34N 35°17' E 139°41'0 0.0
2014-Jul-19 16:22N 35°17' E 139°41'0 0.1
2014-Jul-19 15:30N 35°17' E 139°41'0 0.0
2014-Jul-19 14:31N 35°17' E 139°41'0 0.0
2014-Jul-19 13:29N 35°17' E 139°41'0 0.0
2014-Jul-19 12:31N 35°17' E 139°41'0 0.0
2014-Jul-19 11:20N 35°17' E 139°41'0 0.0
2014-Jul-19 10:31N 35°17' E 139°41'0 0.1
2014-Jul-19 09:33N 35°17' E 139°41'0 0.0
2014-Jul-19 08:33N 35°17' E 139°41'0 0.0
2014-Jul-19 07:33N 35°17' E 139°41'0 0.0
2014-Jul-19 06:34N 35°17' E 139°41'0 0.0
2014-Jul-19 05:34N 35°17' E 139°41'0 0.0
2014-Jul-19 04:33N 35°17' E 139°41'0 0.0
2014-Jul-19 03:34N 35°17' E 139°41'0 0.0
2014-Jul-19 02:34N 35°17' E 139°41'0 0.0
2014-Jul-19 01:33N 35°17' E 139°41'0 0.0
2014-Jul-19 00:33N 35°17' E 139°41'0 0.0
2014-Jul-18 23:32N 35°17' E 139°41'0 0.1
2014-Jul-18 22:33N 35°17' E 139°41'1 1.1
2014-Jul-18 21:33N 35°18' E 139°42'6 6.3
2014-Jul-18 20:34N 35°12' E 139°46'1111.1
2014-Jul-18 19:34N 35°23' E 139°41'1 0.9
2014-Jul-18 18:33N 35°23' E 139°40'0 0.0
2014-Jul-18 17:33N 35°23' E 139°40'0 0.0
2014-Jul-18 16:33N 35°23' E 139°40'0 0.0
2014-Jul-18 15:33N 35°23' E 139°40'0 0.0
2014-Jul-18 14:33N 35°23' E 139°40'0 0.0
2014-Jul-18 13:33N 35°23' E 139°40'2 1.5
2014-Jul-18 12:33N 35°23' E 139°42'7 6.8
2014-Jul-18 11:33N 35°17' E 139°45'7 6.9
2014-Jul-18 10:34N 35°10' E 139°47'4 4.4
2014-Jul-18 09:33N 35°13' E 139°43'0 0.0
2014-Jul-18 08:34N 35°13' E 139°43'6 5.6
2014-Jul-18 07:34N 35°19' E 139°41'0 0.3
2014-Jul-18 06:33N 35°19' E 139°41'2 1.7
2014-Jul-18 05:31N 35°17' E 139°41'0 0.0
2014-Jul-18 03:04N 35°17' E 139°41'0 0.1
2014-Jul-18 02:10N 35°17' E 139°41'0 0.0
2014-Jul-18 01:05N 35°17' E 139°41'0 0.0
2014-Jul-18 00:13N 35°17' E 139°41'0 0.3
2014-Jul-17 23:33N 35°17' E 139°41'2 2.2
2014-Jul-17 22:34N 35°19' E 139°39'2 1.9
2014-Jul-17 21:33N 35°20' E 139°41'3 2.9
2014-Jul-17 20:33N 35°17' E 139°41'0 0.0
2014-Jul-17 19:33N 35°17' E 139°41'0 0.0
2014-Jul-17 18:33N 35°17' E 139°41'0 0.0
2014-Jul-17 17:33N 35°17' E 139°41'0 0.0
2014-Jul-17 16:33N 35°17' E 139°41'0 0.0
2014-Jul-17 15:33N 35°17' E 139°41'0 0.0
2014-Jul-17 14:28N 35°17' E 139°41'0 0.0
2014-Jul-17 13:32N 35°17' E 139°41'0 0.0
2014-Jul-17 12:33N 35°17' E 139°41'0 0.0
2014-Jul-17 11:33N 35°17' E 139°41'0 0.0
2014-Jul-17 10:33N 35°17' E 139°41'0 0.0
2014-Jul-17 09:33N 35°17' E 139°41'0 0.0
2014-Jul-17 08:33N 35°17' E 139°41'0 0.0
2014-Jul-17 07:33N 35°17' E 139°41'0 0.0
2014-Jul-17 06:27N 35°17' E 139°41'0 0.0
2014-Jul-17 05:33N 35°17' E 139°41'0 0.0
2014-Jul-17 04:32N 35°17' E 139°41'0 0.1
2014-Jul-17 03:33N 35°17' E 139°41'0 0.0
2014-Jul-17 02:33N 35°17' E 139°41'8 7.5
2014-Jul-17 01:34N 35°24' E 139°45'2 2.2
2014-Jul-17 00:34N 35°25' E 139°47'9 8.8
2014-Jul-16 23:32N 35°16' E 139°46'6 6.0
2014-Jul-16 22:33N 35°10' E 139°47'6 6.5
2014-Jul-16 21:33N 35°16' E 139°45'2 1.9
2014-Jul-16 20:34N 35°18' E 139°44'8 8.3
2014-Jul-16 19:33N 35°10' E 139°46'4 0.6
2014-Jul-16 12:26N 35°13' E 139°43'0 0.0
2014-Jul-16 11:29N 35°13' E 139°43'0 0.0
2014-Jul-16 10:33N 35°13' E 139°43'0 0.2
2014-Jul-16 09:33N 35°13' E 139°43'6 5.7
2014-Jul-16 08:33N 35°19' E 139°43'5 4.7
2014-Jul-16 07:33N 35°23' E 139°40'8 8.2
2014-Jul-16 06:33N 35°16' E 139°45'5 5.2
2014-Jul-16 05:34N 35°21' E 139°42'1 0.8
2014-Jul-16 04:33N 35°21' E 139°42'4 4.3
2014-Jul-16 03:33N 35°17' E 139°41'0 0.0
2014-Jul-16 02:33N 35°17' E 139°41'8 8.1
2014-Jul-16 01:33N 35°25' E 139°43'9 8.6
2014-Jul-16 00:33N 35°30' E 139°52'4 4.0
2014-Jul-15 23:33N 35°27' E 139°49'1110.6
2014-Jul-15 22:33N 35°16' E 139°46'4 4.2
2014-Jul-15 21:33N 35°12' E 139°47'7 7.0
2014-Jul-15 20:33N 35°17' E 139°41'0 0.0
2014-Jul-15 19:32N 35°17' E 139°41'0 0.0
2014-Jul-15 18:33N 35°17' E 139°41'0 0.0
2014-Jul-15 17:33N 35°17' E 139°41'0 0.0
2014-Jul-15 16:33N 35°17' E 139°41'0 0.0
2014-Jul-15 15:33N 35°17' E 139°41'0 0.0
2014-Jul-15 14:33N 35°17' E 139°41'0 0.0
2014-Jul-15 13:32N 35°17' E 139°41'0 0.0
2014-Jul-15 12:33N 35°17' E 139°41'0 0.0
2014-Jul-15 11:33N 35°17' E 139°41'0 0.0
2014-Jul-15 10:33N 35°17' E 139°41'0 0.0
2014-Jul-15 09:32N 35°17' E 139°41'0 0.0
2014-Jul-15 08:28N 35°17' E 139°41'0 0.0
2014-Jul-15 07:33N 35°17' E 139°41'0 0.0
2014-Jul-15 06:33N 35°17' E 139°41'8 8.4
2014-Jul-15 05:33N 35°25' E 139°43'3 2.6
2014-Jul-15 04:33N 35°25' E 139°46'9 9.2
2014-Jul-15 03:33N 35°16' E 139°46'4 4.1
2014-Jul-15 02:34N 35°12' E 139°46'1211.7
2014-Jul-15 01:33N 35°23' E 139°41'2 1.9
2014-Jul-15 00:33N 35°24' E 139°39'5 5.4
2014-Jul-14 23:33N 35°19' E 139°42'2 1.9
2014-Jul-14 22:33N 35°17' E 139°41'0 0.0
2014-Jul-14 21:28N 35°17' E 139°41'0 0.0
2014-Jul-14 20:33N 35°17' E 139°41'0 0.0
2014-Jul-14 19:33N 35°17' E 139°41'0 0.0
2014-Jul-14 18:33N 35°17' E 139°41'0 0.0
2014-Jul-14 17:30N 35°17' E 139°41'0 0.0
2014-Jul-14 16:31N 35°17' E 139°41'0 0.0
2014-Jul-14 15:30N 35°17' E 139°41'0 0.0
2014-Jul-14 14:33N 35°17' E 139°41'0 0.0
2014-Jul-14 13:29N 35°17' E 139°41'0 0.0
2014-Jul-14 12:33N 35°17' E 139°41'0 0.0
2014-Jul-14 11:32N 35°17' E 139°41'2 1.7
2014-Jul-14 10:33N 35°18' E 139°42'2 2.1
2014-Jul-14 09:33N 35°18' E 139°39'8 8.1
2014-Jul-14 08:34N 35°13' E 139°46'1211.5
2014-Jul-14 07:34N 35°24' E 139°43'1212.2
2014-Jul-14 06:33N 35°30' E 139°57'1 1.2
2014-Jul-14 05:33N 35°29' E 139°57'1110.9
2014-Jul-14 04:33N 35°23' E 139°45'0 0.0
2014-Jul-14 03:33N 35°23' E 139°45'0 0.0
2014-Jul-14 02:33N 35°23' E 139°45'0 0.4
2014-Jul-14 01:33N 35°23' E 139°45'8 8.2
2014-Jul-14 00:34N 35°15' E 139°47'2 2.4
2014-Jul-13 23:33N 35°13' E 139°46'6 6.0
2014-Jul-13 22:32N 35°17' E 139°41'0 0.0
2014-Jul-13 21:33N 35°17' E 139°41'0 0.0
2014-Jul-13 20:32N 35°17' E 139°41'0 0.0
2014-Jul-13 19:32N 35°17' E 139°41'0 0.0
2014-Jul-13 18:33N 35°17' E 139°41'0 0.0
2014-Jul-13 17:32N 35°17' E 139°41'0 0.0
2014-Jul-13 16:33N 35°17' E 139°41'0 0.0
2014-Jul-13 15:33N 35°17' E 139°41'0 0.0
2014-Jul-13 14:33N 35°17' E 139°41'0 0.0
2014-Jul-13 13:33N 35°17' E 139°41'0 0.0
2014-Jul-13 12:30N 35°17' E 139°41'0 0.0
2014-Jul-13 11:32N 35°17' E 139°41'2 2.2
2014-Jul-13 10:33N 35°17' E 139°43'1 1.3
2014-Jul-13 09:33N 35°17' E 139°45'7 7.1
2014-Jul-13 08:33N 35°24' E 139°44'7 7.2
2014-Jul-13 07:33N 35°17' E 139°41'1 0.6
2014-Jul-13 06:32N 35°17' E 139°41'2 1.9
2014-Jul-13 05:32N 35°18' E 139°39'2 1.6
2014-Jul-13 04:34N 35°19' E 139°41'1 0.7
2014-Jul-13 03:33N 35°19' E 139°40'8 8.1
2014-Jul-13 02:33N 35°25' E 139°46'1111.1
2014-Jul-13 01:33N 35°14' E 139°47'1 0.9
2014-Jul-13 00:33N 35°14' E 139°46'5 5.5
2014-Jul-12 23:33N 35°17' E 139°41'0 0.0
2014-Jul-12 22:33N 35°17' E 139°41'0 0.0
2014-Jul-12 21:33N 35°17' E 139°41'0 0.0
2014-Jul-12 20:33N 35°17' E 139°41'0 0.0
2014-Jul-12 19:33N 35°17' E 139°41'0 0.0
2014-Jul-12 18:33N 35°17' E 139°41'0 0.0
2014-Jul-12 17:33N 35°17' E 139°41'0 0.0
2014-Jul-12 16:33N 35°17' E 139°41'0 0.0
2014-Jul-12 15:33N 35°17' E 139°41'0 0.0
2014-Jul-12 14:33N 35°17' E 139°41'0 0.0
2014-Jul-12 13:33N 35°17' E 139°41'0 0.0
2014-Jul-12 12:33N 35°17' E 139°41'0 0.0
2014-Jul-12 11:33N 35°17' E 139°41'0 0.0
2014-Jul-12 10:33N 35°17' E 139°41'0 0.0
2014-Jul-12 09:33N 35°17' E 139°41'0 0.0
2014-Jul-12 08:33N 35°17' E 139°41'0 0.0
2014-Jul-12 07:33N 35°17' E 139°41'0 0.0
2014-Jul-12 06:33N 35°17' E 139°41'  
Track history (hours):
 
Tides and Currents Weather Stations Pressure Air Temp Water Temp Dewpoint Dewpoint Depression Visibility Wind Speed Wind Dir Waves Ship Positions

Uraga Maru

Last reported at 2014-Jul-22 06:33 UTC. Time now 2014-Jul-22 07:21 UTC.
Position N 35°17' E 139°41'.

Length 40 m; draft 2.8 m.

Type: Tug. MMSI: 431101119.

Date/timePositionNaut miles runAvg speedWind from/ knotsBaromVisibWave heightAir tempDewpointWater temp
2014-Jul-22 06:33N 35°17' E 139°41'9 9.1
2014-Jul-22 05:33N 35°26' E 139°43'1 0.9
2014-Jul-22 04:33N 35°27' E 139°43'0 0.0
2014-Jul-22 03:33N 35°27' E 139°43'2 1.5
2014-Jul-22 02:33N 35°26' E 139°44'6 6.3
2014-Jul-22 01:34N 35°20' E 139°44'10 9.9
2014-Jul-22 00:33N 35°10' E 139°47'8 8.4
2014-Jul-21 23:34N 35°17' E 139°41'1 0.8
2014-Jul-21 22:31N 35°17' E 139°41'0 0.0
2014-Jul-21 21:33N 35°17' E 139°41'0 0.0
2014-Jul-21 20:34N 35°17' E 139°41'0 0.0
2014-Jul-21 20:18N 35°17' E 139°41'0 0.0
2014-Jul-21 19:33N 35°17' E 139°41'0 0.0
2014-Jul-21 18:33N 35°17' E 139°41'0 0.0
2014-Jul-21 17:33N 35°17' E 139°41'0 0.0
2014-Jul-21 16:33N 35°17' E 139°41'0 0.0
2014-Jul-21 15:34N 35°17' E 139°41'0 0.0
2014-Jul-21 14:33N 35°17' E 139°41'0 0.0
2014-Jul-21 13:33N 35°17' E 139°41'0 0.0
2014-Jul-21 12:33N 35°17' E 139°41'0 0.0
2014-Jul-21 11:34N 35°17' E 139°41'0 0.0
2014-Jul-21 10:34N 35°17' E 139°41'0 0.0
2014-Jul-21 09:34N 35°17' E 139°41'0 0.0
2014-Jul-21 08:34N 35°17' E 139°41'0 0.0
2014-Jul-21 07:33N 35°17' E 139°41'0 0.0
2014-Jul-21 06:34N 35°17' E 139°41'0 0.0
2014-Jul-21 05:33N 35°17' E 139°41'0 0.0
2014-Jul-21 04:34N 35°17' E 139°41'0 0.0
2014-Jul-21 03:33N 35°17' E 139°41'0 0.0
2014-Jul-21 02:33N 35°17' E 139°41'5 5.4
2014-Jul-21 01:34N 35°15' E 139°46'1110.7
2014-Jul-21 00:34N 35°25' E 139°44'6 5.8
2014-Jul-20 23:33N 35°23' E 139°51'8 7.6
2014-Jul-20 22:33N 35°18' E 139°43'2 2.1
2014-Jul-20 21:25N 35°17' E 139°41'0 0.0
2014-Jul-20 16:16N 35°17' E 139°41'0 0.0
2014-Jul-20 14:25N 35°17' E 139°41'0 0.0
2014-Jul-20 13:07N 35°17' E 139°41'0 0.0
2014-Jul-20 10:04N 35°17' E 139°41'0 0.0
2014-Jul-20 09:22N 35°17' E 139°41'0 0.0
2014-Jul-20 08:31N 35°17' E 139°41'3 3.5
2014-Jul-20 07:33N 35°20' E 139°43'1010.3
2014-Jul-20 06:33N 35°10' E 139°47'9 8.9
2014-Jul-20 05:34N 35°17' E 139°41'0 0.4
2014-Jul-20 04:34N 35°17' E 139°41'0 0.0
2014-Jul-20 03:34N 35°17' E 139°41'0 0.0
2014-Jul-20 02:34N 35°17' E 139°41'4 4.1
2014-Jul-20 01:34N 35°21' E 139°42'8 8.4
2014-Jul-20 00:33N 35°14' E 139°47'1 1.1
2014-Jul-19 23:34N 35°13' E 139°46'6 5.7
2014-Jul-19 22:33N 35°17' E 139°41'0 0.0
2014-Jul-19 21:33N 35°17' E 139°41'0 0.0
2014-Jul-19 20:33N 35°17' E 139°41'0 0.0
2014-Jul-19 19:33N 35°17' E 139°41'0 0.0
2014-Jul-19 18:33N 35°17' E 139°41'0 0.0
2014-Jul-19 17:34N 35°17' E 139°41'0 0.0
2014-Jul-19 16:22N 35°17' E 139°41'0 0.1
2014-Jul-19 15:30N 35°17' E 139°41'0 0.0
2014-Jul-19 14:31N 35°17' E 139°41'0 0.0
2014-Jul-19 13:29N 35°17' E 139°41'0 0.0
2014-Jul-19 12:31N 35°17' E 139°41'0 0.0
2014-Jul-19 11:20N 35°17' E 139°41'0 0.0
2014-Jul-19 10:31N 35°17' E 139°41'0 0.1
2014-Jul-19 09:33N 35°17' E 139°41'0 0.0
2014-Jul-19 08:33N 35°17' E 139°41'0 0.0
2014-Jul-19 07:33N 35°17' E 139°41'0 0.0
2014-Jul-19 06:34N 35°17' E 139°41'0 0.0
2014-Jul-19 05:34N 35°17' E 139°41'0 0.0
2014-Jul-19 04:33N 35°17' E 139°41'0 0.0
2014-Jul-19 03:34N 35°17' E 139°41'0 0.0
2014-Jul-19 02:34N 35°17' E 139°41'0 0.0
2014-Jul-19 01:33N 35°17' E 139°41'0 0.0
2014-Jul-19 00:33N 35°17' E 139°41'0 0.0
2014-Jul-18 23:32N 35°17' E 139°41'0 0.1
2014-Jul-18 22:33N 35°17' E 139°41'1 1.1
2014-Jul-18 21:33N 35°18' E 139°42'6 6.3
2014-Jul-18 20:34N 35°12' E 139°46'1111.1
2014-Jul-18 19:34N 35°23' E 139°41'1 0.9
2014-Jul-18 18:33N 35°23' E 139°40'0 0.0
2014-Jul-18 17:33N 35°23' E 139°40'0 0.0
2014-Jul-18 16:33N 35°23' E 139°40'0 0.0
2014-Jul-18 15:33N 35°23' E 139°40'0 0.0
2014-Jul-18 14:33N 35°23' E 139°40'0 0.0
2014-Jul-18 13:33N 35°23' E 139°40'2 1.5
2014-Jul-18 12:33N 35°23' E 139°42'7 6.8
2014-Jul-18 11:33N 35°17' E 139°45'7 6.9
2014-Jul-18 10:34N 35°10' E 139°47'4 4.4
2014-Jul-18 09:33N 35°13' E 139°43'0 0.0
2014-Jul-18 08:34N 35°13' E 139°43'6 5.6
2014-Jul-18 07:34N 35°19' E 139°41'0 0.3
2014-Jul-18 06:33N 35°19' E 139°41'2 1.7
2014-Jul-18 05:31N 35°17' E 139°41'0 0.0
2014-Jul-18 03:04N 35°17' E 139°41'0 0.1
2014-Jul-18 02:10N 35°17' E 139°41'0 0.0
2014-Jul-18 01:05N 35°17' E 139°41'0 0.0
2014-Jul-18 00:13N 35°17' E 139°41'0 0.3
2014-Jul-17 23:33N 35°17' E 139°41'2 2.2
2014-Jul-17 22:34N 35°19' E 139°39'2 1.9
2014-Jul-17 21:33N 35°20' E 139°41'3 2.9
2014-Jul-17 20:33N 35°17' E 139°41'0 0.0
2014-Jul-17 19:33N 35°17' E 139°41'0 0.0
2014-Jul-17 18:33N 35°17' E 139°41'0 0.0
2014-Jul-17 17:33N 35°17' E 139°41'0 0.0
2014-Jul-17 16:33N 35°17' E 139°41'0 0.0
2014-Jul-17 15:33N 35°17' E 139°41'0 0.0
2014-Jul-17 14:28N 35°17' E 139°41'0 0.0
2014-Jul-17 13:32N 35°17' E 139°41'0 0.0
2014-Jul-17 12:33N 35°17' E 139°41'0 0.0
2014-Jul-17 11:33N 35°17' E 139°41'0 0.0
2014-Jul-17 10:33N 35°17' E 139°41'0 0.0
2014-Jul-17 09:33N 35°17' E 139°41'0 0.0
2014-Jul-17 08:33N 35°17' E 139°41'0 0.0
2014-Jul-17 07:33N 35°17' E 139°41'0 0.0
2014-Jul-17 06:27N 35°17' E 139°41'0 0.0
2014-Jul-17 05:33N 35°17' E 139°41'0 0.0
2014-Jul-17 04:32N 35°17' E 139°41'0 0.1
2014-Jul-17 03:33N 35°17' E 139°41'0 0.0
2014-Jul-17 02:33N 35°17' E 139°41'8 7.5
2014-Jul-17 01:34N 35°24' E 139°45'2 2.2
2014-Jul-17 00:34N 35°25' E 139°47'9 8.8
2014-Jul-16 23:32N 35°16' E 139°46'6 6.0
2014-Jul-16 22:33N 35°10' E 139°47'6 6.5
2014-Jul-16 21:33N 35°16' E 139°45'2 1.9
2014-Jul-16 20:34N 35°18' E 139°44'8 8.3
2014-Jul-16 19:33N 35°10' E 139°46'4 0.6
2014-Jul-16 12:26N 35°13' E 139°43'0 0.0
2014-Jul-16 11:29N 35°13' E 139°43'0 0.0
2014-Jul-16 10:33N 35°13' E 139°43'0 0.2
2014-Jul-16 09:33N 35°13' E 139°43'6 5.7
2014-Jul-16 08:33N 35°19' E 139°43'5 4.7
2014-Jul-16 07:33N 35°23' E 139°40'8 8.2
2014-Jul-16 06:33N 35°16' E 139°45'5 5.2
2014-Jul-16 05:34N 35°21' E 139°42'1 0.8
2014-Jul-16 04:33N 35°21' E 139°42'4 4.3
2014-Jul-16 03:33N 35°17' E 139°41'0 0.0
2014-Jul-16 02:33N 35°17' E 139°41'8 8.1
2014-Jul-16 01:33N 35°25' E 139°43'9 8.6
2014-Jul-16 00:33N 35°30' E 139°52'4 4.0
2014-Jul-15 23:33N 35°27' E 139°49'1110.6
2014-Jul-15 22:33N 35°16' E 139°46'4 4.2
2014-Jul-15 21:33N 35°12' E 139°47'7 7.0
2014-Jul-15 20:33N 35°17' E 139°41'0 0.0
2014-Jul-15 19:32N 35°17' E 139°41'0 0.0
2014-Jul-15 18:33N 35°17' E 139°41'0 0.0
2014-Jul-15 17:33N 35°17' E 139°41'0 0.0
2014-Jul-15 16:33N 35°17' E 139°41'0 0.0
2014-Jul-15 15:33N 35°17' E 139°41'0 0.0
2014-Jul-15 14:33N 35°17' E 139°41'0 0.0
2014-Jul-15 13:32N 35°17' E 139°41'0 0.0
2014-Jul-15 12:33N 35°17' E 139°41'0 0.0
2014-Jul-15 11:33N 35°17' E 139°41'0 0.0
2014-Jul-15 10:33N 35°17' E 139°41'0 0.0
2014-Jul-15 09:32N 35°17' E 139°41'0 0.0
2014-Jul-15 08:28N 35°17' E 139°41'0 0.0
2014-Jul-15 07:33N 35°17' E 139°41'0 0.0
2014-Jul-15 06:33N 35°17' E 139°41'8 8.4
2014-Jul-15 05:33N 35°25' E 139°43'3 2.6
2014-Jul-15 04:33N 35°25' E 139°46'9 9.2
2014-Jul-15 03:33N 35°16' E 139°46'4 4.1
2014-Jul-15 02:34N 35°12' E 139°46'1211.7
2014-Jul-15 01:33N 35°23' E 139°41'2 1.9
2014-Jul-15 00:33N 35°24' E 139°39'5 5.4
2014-Jul-14 23:33N 35°19' E 139°42'2 1.9
2014-Jul-14 22:33N 35°17' E 139°41'0 0.0
2014-Jul-14 21:28N 35°17' E 139°41'0 0.0
2014-Jul-14 20:33N 35°17' E 139°41'0 0.0
2014-Jul-14 19:33N 35°17' E 139°41'0 0.0
2014-Jul-14 18:33N 35°17' E 139°41'0 0.0
2014-Jul-14 17:30N 35°17' E 139°41'0 0.0
2014-Jul-14 16:31N 35°17' E 139°41'0 0.0
2014-Jul-14 15:30N 35°17' E 139°41'0 0.0
2014-Jul-14 14:33N 35°17' E 139°41'0 0.0
2014-Jul-14 13:29N 35°17' E 139°41'0 0.0
2014-Jul-14 12:33N 35°17' E 139°41'0 0.0
2014-Jul-14 11:32N 35°17' E 139°41'2 1.7
2014-Jul-14 10:33N 35°18' E 139°42'2 2.1
2014-Jul-14 09:33N 35°18' E 139°39'8 8.1
2014-Jul-14 08:34N 35°13' E 139°46'1211.5
2014-Jul-14 07:34N 35°24' E 139°43'1212.2
2014-Jul-14 06:33N 35°30' E 139°57'1 1.2
2014-Jul-14 05:33N 35°29' E 139°57'1110.9
2014-Jul-14 04:33N 35°23' E 139°45'0 0.0
2014-Jul-14 03:33N 35°23' E 139°45'0 0.0
2014-Jul-14 02:33N 35°23' E 139°45'0 0.4
2014-Jul-14 01:33N 35°23' E 139°45'8 8.2
2014-Jul-14 00:34N 35°15' E 139°47'2 2.4
2014-Jul-13 23:33N 35°13' E 139°46'6 6.0
2014-Jul-13 22:32N 35°17' E 139°41'0 0.0
2014-Jul-13 21:33N 35°17' E 139°41'0 0.0
2014-Jul-13 20:32N 35°17' E 139°41'0 0.0
2014-Jul-13 19:32N 35°17' E 139°41'0 0.0
2014-Jul-13 18:33N 35°17' E 139°41'0 0.0
2014-Jul-13 17:32N 35°17' E 139°41'0 0.0
2014-Jul-13 16:33N 35°17' E 139°41'0 0.0
2014-Jul-13 15:33N 35°17' E 139°41'0 0.0
2014-Jul-13 14:33N 35°17' E 139°41'0 0.0
2014-Jul-13 13:33N 35°17' E 139°41'0 0.0
2014-Jul-13 12:30N 35°17' E 139°41'0 0.0
2014-Jul-13 11:32N 35°17' E 139°41'2 2.2
2014-Jul-13 10:33N 35°17' E 139°43'1 1.3
2014-Jul-13 09:33N 35°17' E 139°45'7 7.1
2014-Jul-13 08:33N 35°24' E 139°44'7 7.2
2014-Jul-13 07:33N 35°17' E 139°41'1 0.6
2014-Jul-13 06:32N 35°17' E 139°41'2 1.9
2014-Jul-13 05:32N 35°18' E 139°39'2 1.6
2014-Jul-13 04:34N 35°19' E 139°41'1 0.7
2014-Jul-13 03:33N 35°19' E 139°40'8 8.1
2014-Jul-13 02:33N 35°25' E 139°46'1111.1
2014-Jul-13 01:33N 35°14' E 139°47'1 0.9
2014-Jul-13 00:33N 35°14' E 139°46'5 5.5
2014-Jul-12 23:33N 35°17' E 139°41'0 0.0
2014-Jul-12 22:33N 35°17' E 139°41'0 0.0
2014-Jul-12 21:33N 35°17' E 139°41'0 0.0
2014-Jul-12 20:33N 35°17' E 139°41'0 0.0
2014-Jul-12 19:33N 35°17' E 139°41'0 0.0
2014-Jul-12 18:33N 35°17' E 139°41'0 0.0
2014-Jul-12 17:33N 35°17' E 139°41'0 0.0
2014-Jul-12 16:33N 35°17' E 139°41'0 0.0
2014-Jul-12 15:33N 35°17' E 139°41'0 0.0
2014-Jul-12 14:33N 35°17' E 139°41'0 0.0
2014-Jul-12 13:33N 35°17' E 139°41'0 0.0
2014-Jul-12 12:33N 35°17' E 139°41'0 0.0
2014-Jul-12 11:33N 35°17' E 139°41'0 0.0
2014-Jul-12 10:33N 35°17' E 139°41'0 0.0
2014-Jul-12 09:33N 35°17' E 139°41'0 0.0
2014-Jul-12 08:33N 35°17' E 139°41'0 0.0
2014-Jul-12 07:33N 35°17' E 139°41'0 0.0
2014-Jul-12 06:33N 35°17' E 139°41'  

Dump ship's entire track history